sensor_id;sensor_type;location;lat;lon;timestamp;P1;durP1;ratioP1;P2;durP2;ratioP2
3712;SDS011;1872;51.406;6.856;2023-10-31T00:01:03;9.27;;;7.67;;
3712;SDS011;1872;51.406;6.856;2023-10-31T00:03:30;8.97;;;8.00;;
3712;SDS011;1872;51.406;6.856;2023-10-31T00:05:57;11.27;;;7.50;;
3712;SDS011;1872;51.406;6.856;2023-10-31T00:08:23;7.30;;;6.50;;
3712;SDS011;1872;51.406;6.856;2023-10-31T00:10:50;7.40;;;6.40;;
3712;SDS011;1872;51.406;6.856;2023-10-31T00:13:15;7.00;;;6.30;;
3712;SDS011;1872;51.406;6.856;2023-10-31T00:15:42;6.13;;;5.40;;
3712;SDS011;1872;51.406;6.856;2023-10-31T00:18:08;5.47;;;4.87;;
3712;SDS011;1872;51.406;6.856;2023-10-31T00:20:33;6.37;;;5.30;;
3712;SDS011;1872;51.406;6.856;2023-10-31T00:22:59;8.70;;;5.13;;
3712;SDS011;1872;51.406;6.856;2023-10-31T00:25:25;5.37;;;4.90;;
3712;SDS011;1872;51.406;6.856;2023-10-31T00:27:51;5.40;;;4.90;;
3712;SDS011;1872;51.406;6.856;2023-10-31T00:30:16;5.50;;;4.90;;
3712;SDS011;1872;51.406;6.856;2023-10-31T00:32:42;7.23;;;6.20;;
3712;SDS011;1872;51.406;6.856;2023-10-31T00:35:08;6.53;;;5.93;;
3712;SDS011;1872;51.406;6.856;2023-10-31T00:37:34;6.93;;;5.37;;
3712;SDS011;1872;51.406;6.856;2023-10-31T00:39:59;7.50;;;6.40;;
3712;SDS011;1872;51.406;6.856;2023-10-31T00:42:25;6.13;;;5.40;;
3712;SDS011;1872;51.406;6.856;2023-10-31T00:44:50;6.30;;;5.70;;
3712;SDS011;1872;51.406;6.856;2023-10-31T00:47:16;5.67;;;5.10;;
3712;SDS011;1872;51.406;6.856;2023-10-31T00:49:42;5.20;;;4.80;;
3712;SDS011;1872;51.406;6.856;2023-10-31T00:52:08;4.17;;;3.77;;
3712;SDS011;1872;51.406;6.856;2023-10-31T00:54:35;4.00;;;3.70;;
3712;SDS011;1872;51.406;6.856;2023-10-31T00:57:01;4.20;;;3.10;;
3712;SDS011;1872;51.406;6.856;2023-10-31T00:59:27;6.20;;;3.40;;
3712;SDS011;1872;51.406;6.856;2023-10-31T01:01:52;3.37;;;3.17;;
3712;SDS011;1872;51.406;6.856;2023-10-31T01:04:18;3.00;;;2.80;;
3712;SDS011;1872;51.406;6.856;2023-10-31T01:06:43;3.30;;;3.00;;
3712;SDS011;1872;51.406;6.856;2023-10-31T01:09:09;3.40;;;3.10;;
3712;SDS011;1872;51.406;6.856;2023-10-31T01:11:36;4.17;;;3.87;;
3712;SDS011;1872;51.406;6.856;2023-10-31T01:14:02;4.03;;;3.63;;
3712;SDS011;1872;51.406;6.856;2023-10-31T01:16:28;4.27;;;3.87;;
3712;SDS011;1872;51.406;6.856;2023-10-31T01:18:55;4.57;;;4.20;;
3712;SDS011;1872;51.406;6.856;2023-10-31T01:21:20;5.23;;;4.73;;
3712;SDS011;1872;51.406;6.856;2023-10-31T01:23:46;7.17;;;6.53;;
3712;SDS011;1872;51.406;6.856;2023-10-31T01:26:12;8.93;;;8.03;;
3712;SDS011;1872;51.406;6.856;2023-10-31T01:28:37;12.00;;;9.60;;
3712;SDS011;1872;51.406;6.856;2023-10-31T01:31:03;12.30;;;8.70;;
3712;SDS011;1872;51.406;6.856;2023-10-31T01:33:29;9.60;;;7.70;;
3712;SDS011;1872;51.406;6.856;2023-10-31T01:35:54;11.33;;;8.83;;
3712;SDS011;1872;51.406;6.856;2023-10-31T01:38:21;10.40;;;9.30;;
3712;SDS011;1872;51.406;6.856;2023-10-31T01:40:50;9.17;;;7.90;;
3712;SDS011;1872;51.406;6.856;2023-10-31T01:43:34;9.50;;;7.07;;
3712;SDS011;1872;51.406;6.856;2023-10-31T01:46:00;8.20;;;7.23;;
3712;SDS011;1872;51.406;6.856;2023-10-31T01:48:27;7.80;;;6.87;;
3712;SDS011;1872;51.406;6.856;2023-10-31T01:50:55;7.77;;;6.97;;
3712;SDS011;1872;51.406;6.856;2023-10-31T01:53:21;9.80;;;7.80;;
3712;SDS011;1872;51.406;6.856;2023-10-31T01:55:49;12.70;;;8.60;;
3712;SDS011;1872;51.406;6.856;2023-10-31T01:58:17;9.60;;;8.37;;
3712;SDS011;1872;51.406;6.856;2023-10-31T02:00:50;11.37;;;9.00;;
3712;SDS011;1872;51.406;6.856;2023-10-31T02:03:16;8.87;;;7.97;;
3712;SDS011;1872;51.406;6.856;2023-10-31T02:05:43;9.77;;;8.77;;
3712;SDS011;1872;51.406;6.856;2023-10-31T02:08:09;11.53;;;8.80;;
3712;SDS011;1872;51.406;6.856;2023-10-31T02:10:35;8.50;;;7.60;;
3712;SDS011;1872;51.406;6.856;2023-10-31T02:13:13;9.17;;;7.87;;
3712;SDS011;1872;51.406;6.856;2023-10-31T02:15:40;10.20;;;7.30;;
3712;SDS011;1872;51.406;6.856;2023-10-31T02:18:06;9.30;;;7.50;;
3712;SDS011;1872;51.406;6.856;2023-10-31T02:20:33;10.17;;;9.13;;
3712;SDS011;1872;51.406;6.856;2023-10-31T02:22:59;12.70;;;9.60;;
3712;SDS011;1872;51.406;6.856;2023-10-31T02:25:25;10.60;;;8.17;;
3712;SDS011;1872;51.406;6.856;2023-10-31T02:27:50;9.80;;;8.80;;
3712;SDS011;1872;51.406;6.856;2023-10-31T02:30:16;9.90;;;8.50;;
3712;SDS011;1872;51.406;6.856;2023-10-31T02:32:42;11.23;;;9.13;;
3712;SDS011;1872;51.406;6.856;2023-10-31T02:35:08;10.27;;;8.50;;
3712;SDS011;1872;51.406;6.856;2023-10-31T02:37:34;11.73;;;9.10;;
3712;SDS011;1872;51.406;6.856;2023-10-31T02:39:59;11.13;;;9.33;;
3712;SDS011;1872;51.406;6.856;2023-10-31T02:42:26;12.57;;;9.70;;
3712;SDS011;1872;51.406;6.856;2023-10-31T02:44:52;10.60;;;9.40;;
3712;SDS011;1872;51.406;6.856;2023-10-31T02:47:18;14.20;;;9.67;;
3712;SDS011;1872;51.406;6.856;2023-10-31T02:49:44;14.47;;;9.87;;
3712;SDS011;1872;51.406;6.856;2023-10-31T02:52:10;13.40;;;10.10;;
3712;SDS011;1872;51.406;6.856;2023-10-31T02:54:35;13.90;;;9.90;;
3712;SDS011;1872;51.406;6.856;2023-10-31T02:57:01;15.10;;;10.90;;
3712;SDS011;1872;51.406;6.856;2023-10-31T02:59:27;14.43;;;9.87;;
3712;SDS011;1872;51.406;6.856;2023-10-31T03:01:53;12.73;;;10.03;;
3712;SDS011;1872;51.406;6.856;2023-10-31T03:04:18;14.47;;;9.50;;
3712;SDS011;1872;51.406;6.856;2023-10-31T03:06:44;15.60;;;9.37;;
3712;SDS011;1872;51.406;6.856;2023-10-31T03:09:11;12.87;;;9.30;;
3712;SDS011;1872;51.406;6.856;2023-10-31T03:11:36;11.97;;;9.17;;
3712;SDS011;1872;51.406;6.856;2023-10-31T03:14:02;11.07;;;8.63;;
3712;SDS011;1872;51.406;6.856;2023-10-31T03:16:28;12.10;;;8.60;;
3712;SDS011;1872;51.406;6.856;2023-10-31T03:18:53;15.03;;;9.57;;
3712;SDS011;1872;51.406;6.856;2023-10-31T03:21:19;12.90;;;9.17;;
3712;SDS011;1872;51.406;6.856;2023-10-31T03:23:48;12.03;;;8.40;;
3712;SDS011;1872;51.406;6.856;2023-10-31T03:26:15;12.13;;;9.00;;
3712;SDS011;1872;51.406;6.856;2023-10-31T03:28:44;14.33;;;8.60;;
3712;SDS011;1872;51.406;6.856;2023-10-31T03:31:10;13.03;;;8.10;;
3712;SDS011;1872;51.406;6.856;2023-10-31T03:33:36;11.70;;;8.07;;
3712;SDS011;1872;51.406;6.856;2023-10-31T03:36:02;11.30;;;8.03;;
3712;SDS011;1872;51.406;6.856;2023-10-31T03:38:28;11.37;;;8.50;;
3712;SDS011;1872;51.406;6.856;2023-10-31T03:40:54;13.40;;;9.33;;
3712;SDS011;1872;51.406;6.856;2023-10-31T03:43:20;13.10;;;10.20;;
3712;SDS011;1872;51.406;6.856;2023-10-31T03:45:46;11.80;;;8.80;;
3712;SDS011;1872;51.406;6.856;2023-10-31T03:48:15;14.43;;;9.07;;
3712;SDS011;1872;51.406;6.856;2023-10-31T03:50:42;13.70;;;9.30;;
3712;SDS011;1872;51.406;6.856;2023-10-31T03:53:08;15.33;;;10.47;;
3712;SDS011;1872;51.406;6.856;2023-10-31T03:55:33;13.93;;;8.80;;
3712;SDS011;1872;51.406;6.856;2023-10-31T03:57:59;12.80;;;9.13;;
3712;SDS011;1872;51.406;6.856;2023-10-31T04:00:25;15.47;;;9.10;;
3712;SDS011;1872;51.406;6.856;2023-10-31T04:02:51;13.40;;;8.83;;
3712;SDS011;1872;51.406;6.856;2023-10-31T04:05:16;13.47;;;9.27;;
3712;SDS011;1872;51.406;6.856;2023-10-31T04:07:42;12.50;;;9.37;;
3712;SDS011;1872;51.406;6.856;2023-10-31T04:10:08;14.80;;;9.40;;
3712;SDS011;1872;51.406;6.856;2023-10-31T04:12:34;13.40;;;9.37;;
3712;SDS011;1872;51.406;6.856;2023-10-31T04:15:00;15.07;;;11.03;;
3712;SDS011;1872;51.406;6.856;2023-10-31T04:17:26;14.60;;;9.60;;
3712;SDS011;1872;51.406;6.856;2023-10-31T04:19:51;13.20;;;9.53;;
3712;SDS011;1872;51.406;6.856;2023-10-31T04:22:18;12.73;;;9.17;;
3712;SDS011;1872;51.406;6.856;2023-10-31T04:24:44;14.60;;;9.87;;
3712;SDS011;1872;51.406;6.856;2023-10-31T04:27:10;13.20;;;8.33;;
3712;SDS011;1872;51.406;6.856;2023-10-31T04:32:06;13.03;;;8.93;;
3712;SDS011;1872;51.406;6.856;2023-10-31T04:34:32;11.90;;;8.47;;
3712;SDS011;1872;51.406;6.856;2023-10-31T04:36:58;12.57;;;8.90;;
3712;SDS011;1872;51.406;6.856;2023-10-31T04:39:23;12.03;;;9.07;;
3712;SDS011;1872;51.406;6.856;2023-10-31T04:41:49;12.23;;;8.00;;
3712;SDS011;1872;51.406;6.856;2023-10-31T04:44:15;12.40;;;8.77;;
3712;SDS011;1872;51.406;6.856;2023-10-31T04:46:41;12.97;;;9.13;;
3712;SDS011;1872;51.406;6.856;2023-10-31T04:49:07;12.90;;;8.37;;
3712;SDS011;1872;51.406;6.856;2023-10-31T04:51:37;11.70;;;9.13;;
3712;SDS011;1872;51.406;6.856;2023-10-31T04:54:03;13.20;;;8.90;;
3712;SDS011;1872;51.406;6.856;2023-10-31T04:56:30;14.13;;;10.20;;
3712;SDS011;1872;51.406;6.856;2023-10-31T04:58:56;11.70;;;9.83;;
3712;SDS011;1872;51.406;6.856;2023-10-31T05:01:21;15.80;;;11.40;;
3712;SDS011;1872;51.406;6.856;2023-10-31T05:03:47;14.63;;;10.47;;
3712;SDS011;1872;51.406;6.856;2023-10-31T05:06:13;13.83;;;10.67;;
3712;SDS011;1872;51.406;6.856;2023-10-31T05:08:47;14.67;;;10.93;;
3712;SDS011;1872;51.406;6.856;2023-10-31T05:11:13;14.50;;;10.77;;
3712;SDS011;1872;51.406;6.856;2023-10-31T05:13:41;15.90;;;11.10;;
3712;SDS011;1872;51.406;6.856;2023-10-31T05:16:08;13.80;;;10.90;;
3712;SDS011;1872;51.406;6.856;2023-10-31T05:18:36;13.57;;;10.20;;
3712;SDS011;1872;51.406;6.856;2023-10-31T05:21:02;15.20;;;10.57;;
3712;SDS011;1872;51.406;6.856;2023-10-31T05:23:27;14.00;;;10.50;;
3712;SDS011;1872;51.406;6.856;2023-10-31T05:25:53;15.40;;;11.20;;
3712;SDS011;1872;51.406;6.856;2023-10-31T05:28:20;15.50;;;10.83;;
3712;SDS011;1872;51.406;6.856;2023-10-31T05:30:46;16.60;;;11.80;;
3712;SDS011;1872;51.406;6.856;2023-10-31T05:33:23;13.77;;;10.13;;
3712;SDS011;1872;51.406;6.856;2023-10-31T05:35:49;14.90;;;10.37;;
3712;SDS011;1872;51.406;6.856;2023-10-31T05:38:15;14.03;;;9.47;;
3712;SDS011;1872;51.406;6.856;2023-10-31T05:40:41;11.10;;;8.67;;
3712;SDS011;1872;51.406;6.856;2023-10-31T05:48:39;13.23;;;9.37;;
3712;SDS011;1872;51.406;6.856;2023-10-31T05:51:14;12.90;;;8.80;;
3712;SDS011;1872;51.406;6.856;2023-10-31T05:53:44;17.13;;;9.20;;
3712;SDS011;1872;51.406;6.856;2023-10-31T05:56:12;13.40;;;8.63;;
3712;SDS011;1872;51.406;6.856;2023-10-31T05:58:39;14.60;;;9.50;;
3712;SDS011;1872;51.406;6.856;2023-10-31T06:01:05;14.67;;;9.07;;
3712;SDS011;1872;51.406;6.856;2023-10-31T06:03:32;16.30;;;10.30;;
3712;SDS011;1872;51.406;6.856;2023-10-31T06:05:57;12.77;;;8.70;;
3712;SDS011;1872;51.406;6.856;2023-10-31T06:08:23;14.30;;;8.20;;
3712;SDS011;1872;51.406;6.856;2023-10-31T06:10:55;11.73;;;8.83;;
3712;SDS011;1872;51.406;6.856;2023-10-31T06:13:24;14.73;;;10.10;;
3712;SDS011;1872;51.406;6.856;2023-10-31T06:15:57;11.40;;;9.20;;
3712;SDS011;1872;51.406;6.856;2023-10-31T06:18:30;15.00;;;8.77;;
3712;SDS011;1872;51.406;6.856;2023-10-31T06:20:55;13.43;;;8.77;;
3712;SDS011;1872;51.406;6.856;2023-10-31T06:23:22;12.77;;;9.50;;
3712;SDS011;1872;51.406;6.856;2023-10-31T06:25:47;13.00;;;9.10;;
3712;SDS011;1872;51.406;6.856;2023-10-31T06:28:13;12.13;;;8.93;;
3712;SDS011;1872;51.406;6.856;2023-10-31T06:30:39;11.27;;;8.23;;
3712;SDS011;1872;51.406;6.856;2023-10-31T06:33:04;12.43;;;8.70;;
3712;SDS011;1872;51.406;6.856;2023-10-31T06:35:32;11.07;;;8.20;;
3712;SDS011;1872;51.406;6.856;2023-10-31T06:37:59;12.07;;;8.10;;
3712;SDS011;1872;51.406;6.856;2023-10-31T06:40:26;13.20;;;9.07;;
3712;SDS011;1872;51.406;6.856;2023-10-31T06:42:52;14.40;;;10.10;;
3712;SDS011;1872;51.406;6.856;2023-10-31T06:45:17;13.97;;;10.17;;
3712;SDS011;1872;51.406;6.856;2023-10-31T06:47:43;13.50;;;9.10;;
3712;SDS011;1872;51.406;6.856;2023-10-31T06:50:09;13.40;;;9.60;;
3712;SDS011;1872;51.406;6.856;2023-10-31T06:52:35;14.37;;;9.10;;
3712;SDS011;1872;51.406;6.856;2023-10-31T06:55:01;13.90;;;9.00;;
3712;SDS011;1872;51.406;6.856;2023-10-31T06:57:28;10.70;;;7.83;;
3712;SDS011;1872;51.406;6.856;2023-10-31T06:59:54;12.67;;;8.77;;
3712;SDS011;1872;51.406;6.856;2023-10-31T07:02:20;11.90;;;9.17;;
3712;SDS011;1872;51.406;6.856;2023-10-31T07:04:46;13.40;;;8.87;;
3712;SDS011;1872;51.406;6.856;2023-10-31T07:07:12;13.07;;;8.40;;
3712;SDS011;1872;51.406;6.856;2023-10-31T07:09:37;10.03;;;8.37;;
3712;SDS011;1872;51.406;6.856;2023-10-31T07:12:03;14.90;;;10.23;;
3712;SDS011;1872;51.406;6.856;2023-10-31T07:14:29;13.30;;;9.70;;
3712;SDS011;1872;51.406;6.856;2023-10-31T07:16:55;12.43;;;9.90;;
3712;SDS011;1872;51.406;6.856;2023-10-31T07:19:21;14.93;;;10.57;;
3712;SDS011;1872;51.406;6.856;2023-10-31T07:21:47;16.53;;;11.70;;
3712;SDS011;1872;51.406;6.856;2023-10-31T07:24:13;16.30;;;10.83;;
3712;SDS011;1872;51.406;6.856;2023-10-31T07:26:38;22.73;;;12.30;;
3712;SDS011;1872;51.406;6.856;2023-10-31T07:29:04;15.30;;;10.83;;
3712;SDS011;1872;51.406;6.856;2023-10-31T07:36:37;20.10;;;14.00;;
3712;SDS011;1872;51.406;6.856;2023-10-31T07:39:04;20.27;;;13.60;;
3712;SDS011;1872;51.406;6.856;2023-10-31T07:41:30;17.63;;;13.40;;
3712;SDS011;1872;51.406;6.856;2023-10-31T07:43:56;17.63;;;13.03;;
3712;SDS011;1872;51.406;6.856;2023-10-31T07:46:23;20.80;;;14.83;;
3712;SDS011;1872;51.406;6.856;2023-10-31T07:48:49;19.23;;;13.23;;
3712;SDS011;1872;51.406;6.856;2023-10-31T07:51:15;21.77;;;13.87;;
3712;SDS011;1872;51.406;6.856;2023-10-31T07:53:41;19.07;;;12.90;;
3712;SDS011;1872;51.406;6.856;2023-10-31T07:56:14;20.13;;;13.67;;
3712;SDS011;1872;51.406;6.856;2023-10-31T07:58:47;19.90;;;13.13;;
3712;SDS011;1872;51.406;6.856;2023-10-31T08:01:19;17.63;;;12.00;;
3712;SDS011;1872;51.406;6.856;2023-10-31T08:03:46;19.20;;;12.43;;
3712;SDS011;1872;51.406;6.856;2023-10-31T08:06:13;15.83;;;11.67;;
3712;SDS011;1872;51.406;6.856;2023-10-31T08:08:39;16.93;;;11.93;;
3712;SDS011;1872;51.406;6.856;2023-10-31T08:11:08;17.90;;;12.43;;
3712;SDS011;1872;51.406;6.856;2023-10-31T08:13:34;15.23;;;10.80;;
3712;SDS011;1872;51.406;6.856;2023-10-31T08:16:06;14.73;;;11.50;;
3712;SDS011;1872;51.406;6.856;2023-10-31T08:18:32;15.73;;;11.33;;
3712;SDS011;1872;51.406;6.856;2023-10-31T08:20:58;15.07;;;10.77;;
3712;SDS011;1872;51.406;6.856;2023-10-31T08:23:25;18.33;;;13.40;;
3712;SDS011;1872;51.406;6.856;2023-10-31T08:25:52;18.40;;;11.07;;
3712;SDS011;1872;51.406;6.856;2023-10-31T08:28:17;13.50;;;9.73;;
3712;SDS011;1872;51.406;6.856;2023-10-31T08:30:43;13.93;;;9.80;;
3712;SDS011;1872;51.406;6.856;2023-10-31T08:33:10;15.13;;;11.13;;
3712;SDS011;1872;51.406;6.856;2023-10-31T08:35:35;12.67;;;10.20;;
3712;SDS011;1872;51.406;6.856;2023-10-31T08:38:01;15.47;;;11.10;;
3712;SDS011;1872;51.406;6.856;2023-10-31T08:40:27;16.47;;;12.60;;
3712;SDS011;1872;51.406;6.856;2023-10-31T08:42:55;15.00;;;9.70;;
3712;SDS011;1872;51.406;6.856;2023-10-31T08:45:22;14.70;;;12.37;;
3712;SDS011;1872;51.406;6.856;2023-10-31T08:47:48;13.83;;;11.10;;
3712;SDS011;1872;51.406;6.856;2023-10-31T08:50:14;11.87;;;10.30;;
3712;SDS011;1872;51.406;6.856;2023-10-31T08:52:40;12.00;;;9.00;;
3712;SDS011;1872;51.406;6.856;2023-10-31T08:55:06;13.40;;;9.47;;
3712;SDS011;1872;51.406;6.856;2023-10-31T08:57:32;14.43;;;9.77;;
3712;SDS011;1872;51.406;6.856;2023-10-31T08:59:58;11.00;;;8.40;;
3712;SDS011;1872;51.406;6.856;2023-10-31T09:02:25;10.53;;;9.00;;
3712;SDS011;1872;51.406;6.856;2023-10-31T09:04:50;9.70;;;7.83;;
3712;SDS011;1872;51.406;6.856;2023-10-31T09:07:16;11.73;;;8.10;;
3712;SDS011;1872;51.406;6.856;2023-10-31T09:09:41;8.80;;;7.20;;
3712;SDS011;1872;51.406;6.856;2023-10-31T09:12:08;9.40;;;8.00;;
3712;SDS011;1872;51.406;6.856;2023-10-31T09:14:34;9.13;;;6.70;;
3712;SDS011;1872;51.406;6.856;2023-10-31T09:17:00;7.67;;;6.70;;
3712;SDS011;1872;51.406;6.856;2023-10-31T09:19:28;9.10;;;7.27;;
3712;SDS011;1872;51.406;6.856;2023-10-31T09:21:54;10.40;;;7.00;;
3712;SDS011;1872;51.406;6.856;2023-10-31T09:24:20;9.50;;;7.00;;
3712;SDS011;1872;51.406;6.856;2023-10-31T09:26:46;10.50;;;7.87;;
3712;SDS011;1872;51.406;6.856;2023-10-31T09:29:12;9.70;;;7.33;;
3712;SDS011;1872;51.406;6.856;2023-10-31T09:31:38;9.87;;;7.70;;
3712;SDS011;1872;51.406;6.856;2023-10-31T09:34:03;9.80;;;7.57;;
3712;SDS011;1872;51.406;6.856;2023-10-31T09:36:32;13.33;;;7.33;;
3712;SDS011;1872;51.406;6.856;2023-10-31T09:39:02;10.20;;;8.43;;
3712;SDS011;1872;51.406;6.856;2023-10-31T09:41:28;9.83;;;7.93;;
3712;SDS011;1872;51.406;6.856;2023-10-31T09:43:55;11.03;;;7.60;;
3712;SDS011;1872;51.406;6.856;2023-10-31T09:46:21;11.87;;;8.13;;
3712;SDS011;1872;51.406;6.856;2023-10-31T09:48:48;10.97;;;8.10;;
3712;SDS011;1872;51.406;6.856;2023-10-31T09:51:21;9.97;;;8.23;;
3712;SDS011;1872;51.406;6.856;2023-10-31T09:53:47;11.80;;;8.33;;
3712;SDS011;1872;51.406;6.856;2023-10-31T09:56:15;9.60;;;7.67;;
3712;SDS011;1872;51.406;6.856;2023-10-31T09:58:42;12.30;;;8.90;;
3712;SDS011;1872;51.406;6.856;2023-10-31T10:01:07;7.93;;;7.10;;
3712;SDS011;1872;51.406;6.856;2023-10-31T10:03:37;10.07;;;8.30;;
3712;SDS011;1872;51.406;6.856;2023-10-31T10:06:03;10.93;;;7.73;;
3712;SDS011;1872;51.406;6.856;2023-10-31T10:08:29;9.37;;;8.10;;
3712;SDS011;1872;51.406;6.856;2023-10-31T10:10:55;10.60;;;7.70;;
3712;SDS011;1872;51.406;6.856;2023-10-31T10:13:22;10.73;;;7.80;;
3712;SDS011;1872;51.406;6.856;2023-10-31T10:15:48;9.37;;;7.60;;
3712;SDS011;1872;51.406;6.856;2023-10-31T10:18:33;11.20;;;7.87;;
3712;SDS011;1872;51.406;6.856;2023-10-31T10:21:07;9.30;;;8.20;;
3712;SDS011;1872;51.406;6.856;2023-10-31T10:23:34;9.93;;;7.00;;
3712;SDS011;1872;51.406;6.856;2023-10-31T10:26:02;13.60;;;7.40;;
3712;SDS011;1872;51.406;6.856;2023-10-31T10:28:28;9.37;;;7.50;;
3712;SDS011;1872;51.406;6.856;2023-10-31T10:30:54;8.90;;;7.77;;
3712;SDS011;1872;51.406;6.856;2023-10-31T10:33:21;9.50;;;7.10;;
3712;SDS011;1872;51.406;6.856;2023-10-31T10:35:47;10.80;;;7.67;;
3712;SDS011;1872;51.406;6.856;2023-10-31T10:38:15;10.47;;;7.67;;
3712;SDS011;1872;51.406;6.856;2023-10-31T10:40:42;14.73;;;8.37;;
3712;SDS011;1872;51.406;6.856;2023-10-31T10:43:22;11.37;;;7.50;;
3712;SDS011;1872;51.406;6.856;2023-10-31T10:45:56;8.30;;;7.13;;
3712;SDS011;1872;51.406;6.856;2023-10-31T10:48:25;8.70;;;7.70;;
3712;SDS011;1872;51.406;6.856;2023-10-31T10:54:06;8.43;;;7.37;;
3712;SDS011;1872;51.406;6.856;2023-10-31T10:56:41;8.63;;;7.10;;
3712;SDS011;1872;51.406;6.856;2023-10-31T10:59:15;8.53;;;6.73;;
3712;SDS011;1872;51.406;6.856;2023-10-31T11:01:45;9.77;;;7.53;;
3712;SDS011;1872;51.406;6.856;2023-10-31T11:04:13;7.13;;;6.40;;
3712;SDS011;1872;51.406;6.856;2023-10-31T11:06:39;6.70;;;6.10;;
3712;SDS011;1872;51.406;6.856;2023-10-31T11:09:06;7.40;;;5.83;;
3712;SDS011;1872;51.406;6.856;2023-10-31T11:11:35;6.83;;;6.10;;
3712;SDS011;1872;51.406;6.856;2023-10-31T11:14:03;8.73;;;6.17;;
3712;SDS011;1872;51.406;6.856;2023-10-31T11:16:51;6.70;;;4.93;;
3712;SDS011;1872;51.406;6.856;2023-10-31T11:19:20;7.07;;;5.70;;
3712;SDS011;1872;51.406;6.856;2023-10-31T11:22:20;6.90;;;5.57;;
3712;SDS011;1872;51.406;6.856;2023-10-31T11:24:42;8.20;;;4.87;;
3712;SDS011;1872;51.406;6.856;2023-10-31T11:27:08;6.03;;;4.80;;
3712;SDS011;1872;51.406;6.856;2023-10-31T11:29:37;7.00;;;5.20;;
3712;SDS011;1872;51.406;6.856;2023-10-31T11:32:04;5.20;;;4.70;;
3712;SDS011;1872;51.406;6.856;2023-10-31T11:34:35;10.70;;;5.07;;
3712;SDS011;1872;51.406;6.856;2023-10-31T11:37:25;5.63;;;4.77;;
3712;SDS011;1872;51.406;6.856;2023-10-31T11:48:09;6.13;;;4.73;;
3712;SDS011;1872;51.406;6.856;2023-10-31T11:50:36;4.43;;;4.03;;
3712;SDS011;1872;51.406;6.856;2023-10-31T11:53:09;5.70;;;4.17;;
3712;SDS011;1872;51.406;6.856;2023-10-31T11:55:44;4.60;;;3.57;;
3712;SDS011;1872;51.406;6.856;2023-10-31T11:58:15;4.50;;;4.10;;
3712;SDS011;1872;51.406;6.856;2023-10-31T12:00:43;5.27;;;4.17;;
3712;SDS011;1872;51.406;6.856;2023-10-31T12:03:11;4.80;;;3.63;;
3712;SDS011;1872;51.406;6.856;2023-10-31T12:05:36;6.70;;;4.27;;
3712;SDS011;1872;51.406;6.856;2023-10-31T12:08:02;5.20;;;4.70;;
3712;SDS011;1872;51.406;6.856;2023-10-31T12:10:28;6.30;;;3.67;;
3712;SDS011;1872;51.406;6.856;2023-10-31T12:12:57;4.60;;;4.10;;
3712;SDS011;1872;51.406;6.856;2023-10-31T12:15:24;5.37;;;3.83;;
3712;SDS011;1872;51.406;6.856;2023-10-31T12:17:50;3.87;;;3.30;;
3712;SDS011;1872;51.406;6.856;2023-10-31T12:20:16;4.30;;;3.90;;
3712;SDS011;1872;51.406;6.856;2023-10-31T12:22:42;4.23;;;3.80;;
3712;SDS011;1872;51.406;6.856;2023-10-31T12:25:09;3.60;;;3.10;;
3712;SDS011;1872;51.406;6.856;2023-10-31T12:27:42;4.97;;;3.40;;
3712;SDS011;1872;51.406;6.856;2023-10-31T12:30:11;4.57;;;3.67;;
3712;SDS011;1872;51.406;6.856;2023-10-31T12:32:42;5.40;;;3.93;;
3712;SDS011;1872;51.406;6.856;2023-10-31T12:35:12;4.50;;;3.57;;
3712;SDS011;1872;51.406;6.856;2023-10-31T12:37:50;3.70;;;3.00;;
3712;SDS011;1872;51.406;6.856;2023-10-31T12:40:17;3.73;;;3.30;;
3712;SDS011;1872;51.406;6.856;2023-10-31T12:42:44;3.53;;;3.23;;
3712;SDS011;1872;51.406;6.856;2023-10-31T12:45:11;3.60;;;3.30;;
3712;SDS011;1872;51.406;6.856;2023-10-31T12:47:38;3.80;;;3.17;;
3712;SDS011;1872;51.406;6.856;2023-10-31T12:50:08;4.03;;;3.63;;
3712;SDS011;1872;51.406;6.856;2023-10-31T12:52:47;6.27;;;3.77;;
3712;SDS011;1872;51.406;6.856;2023-10-31T12:55:16;3.60;;;3.30;;
3712;SDS011;1872;51.406;6.856;2023-10-31T12:57:42;3.93;;;3.53;;
3712;SDS011;1872;51.406;6.856;2023-10-31T13:00:10;3.53;;;3.27;;
3712;SDS011;1872;51.406;6.856;2023-10-31T13:02:38;3.50;;;3.20;;
3712;SDS011;1872;51.406;6.856;2023-10-31T13:05:14;3.93;;;3.53;;
3712;SDS011;1872;51.406;6.856;2023-10-31T13:07:53;3.10;;;2.80;;
3712;SDS011;1872;51.406;6.856;2023-10-31T13:10:22;4.63;;;3.03;;
3712;SDS011;1872;51.406;6.856;2023-10-31T13:12:49;3.40;;;3.13;;
3712;SDS011;1872;51.406;6.856;2023-10-31T13:15:16;3.07;;;2.77;;
3712;SDS011;1872;51.406;6.856;2023-10-31T13:17:50;4.23;;;3.20;;
3712;SDS011;1872;51.406;6.856;2023-10-31T13:20:19;5.97;;;3.37;;
3712;SDS011;1872;51.406;6.856;2023-10-31T13:22:47;3.73;;;3.43;;
3712;SDS011;1872;51.406;6.856;2023-10-31T13:25:15;4.80;;;3.77;;
3712;SDS011;1872;51.406;6.856;2023-10-31T13:27:43;3.60;;;3.30;;
3712;SDS011;1872;51.406;6.856;2023-10-31T13:30:10;5.10;;;3.43;;
3712;SDS011;1872;51.406;6.856;2023-10-31T13:32:37;4.47;;;3.60;;
3712;SDS011;1872;51.406;6.856;2023-10-31T13:35:03;4.03;;;3.73;;
3712;SDS011;1872;51.406;6.856;2023-10-31T13:37:30;4.00;;;3.60;;
3712;SDS011;1872;51.406;6.856;2023-10-31T13:39:56;4.47;;;4.07;;
3712;SDS011;1872;51.406;6.856;2023-10-31T13:42:21;4.10;;;3.60;;
3712;SDS011;1872;51.406;6.856;2023-10-31T13:44:47;4.27;;;3.97;;
3712;SDS011;1872;51.406;6.856;2023-10-31T13:47:13;4.17;;;3.83;;
3712;SDS011;1872;51.406;6.856;2023-10-31T13:49:39;6.40;;;4.07;;
3712;SDS011;1872;51.406;6.856;2023-10-31T13:52:06;5.50;;;4.60;;
3712;SDS011;1872;51.406;6.856;2023-10-31T13:54:32;5.07;;;4.57;;
3712;SDS011;1872;51.406;6.856;2023-10-31T13:56:58;5.80;;;3.93;;
3712;SDS011;1872;51.406;6.856;2023-10-31T13:59:24;5.17;;;4.67;;
3712;SDS011;1872;51.406;6.856;2023-10-31T14:01:50;5.00;;;3.60;;
3712;SDS011;1872;51.406;6.856;2023-10-31T14:04:16;5.40;;;4.03;;
3712;SDS011;1872;51.406;6.856;2023-10-31T14:06:42;3.77;;;3.47;;
3712;SDS011;1872;51.406;6.856;2023-10-31T14:09:08;5.47;;;4.53;;
3712;SDS011;1872;51.406;6.856;2023-10-31T14:11:36;4.23;;;3.80;;
3712;SDS011;1872;51.406;6.856;2023-10-31T14:14:02;3.83;;;3.60;;
3712;SDS011;1872;51.406;6.856;2023-10-31T14:16:37;4.47;;;4.07;;
3712;SDS011;1872;51.406;6.856;2023-10-31T14:19:03;5.13;;;4.07;;
3712;SDS011;1872;51.406;6.856;2023-10-31T14:21:30;4.60;;;4.20;;
3712;SDS011;1872;51.406;6.856;2023-10-31T14:23:55;4.50;;;3.73;;
3712;SDS011;1872;51.406;6.856;2023-10-31T14:26:22;3.73;;;3.43;;
3712;SDS011;1872;51.406;6.856;2023-10-31T14:28:48;5.50;;;4.30;;
3712;SDS011;1872;51.406;6.856;2023-10-31T14:31:14;3.90;;;3.60;;
3712;SDS011;1872;51.406;6.856;2023-10-31T14:33:40;5.90;;;4.80;;
3712;SDS011;1872;51.406;6.856;2023-10-31T14:36:06;4.10;;;3.70;;
3712;SDS011;1872;51.406;6.856;2023-10-31T14:38:35;4.00;;;3.60;;
3712;SDS011;1872;51.406;6.856;2023-10-31T14:41:01;4.07;;;3.57;;
3712;SDS011;1872;51.406;6.856;2023-10-31T14:43:27;4.10;;;3.70;;
3712;SDS011;1872;51.406;6.856;2023-10-31T14:45:53;7.60;;;4.10;;
3712;SDS011;1872;51.406;6.856;2023-10-31T14:48:19;4.20;;;3.20;;
3712;SDS011;1872;51.406;6.856;2023-10-31T14:50:46;3.53;;;3.23;;
3712;SDS011;1872;51.406;6.856;2023-10-31T14:53:12;3.23;;;3.03;;
3712;SDS011;1872;51.406;6.856;2023-10-31T14:55:38;3.70;;;3.40;;
3712;SDS011;1872;51.406;6.856;2023-10-31T14:58:04;4.93;;;3.27;;
3712;SDS011;1872;51.406;6.856;2023-10-31T15:00:29;4.80;;;3.20;;
3712;SDS011;1872;51.406;6.856;2023-10-31T15:02:56;4.17;;;3.70;;
3712;SDS011;1872;51.406;6.856;2023-10-31T15:05:24;4.10;;;3.03;;
3712;SDS011;1872;51.406;6.856;2023-10-31T15:07:50;2.73;;;2.53;;
3712;SDS011;1872;51.406;6.856;2023-10-31T15:10:19;3.83;;;3.20;;
3712;SDS011;1872;51.406;6.856;2023-10-31T15:12:48;3.50;;;3.20;;
3712;SDS011;1872;51.406;6.856;2023-10-31T15:15:14;5.00;;;3.57;;
3712;SDS011;1872;51.406;6.856;2023-10-31T15:17:40;3.27;;;3.03;;
3712;SDS011;1872;51.406;6.856;2023-10-31T15:20:06;3.20;;;2.90;;
3712;SDS011;1872;51.406;6.856;2023-10-31T15:22:35;3.50;;;3.20;;
3712;SDS011;1872;51.406;6.856;2023-10-31T15:25:01;3.77;;;3.37;;
3712;SDS011;1872;51.406;6.856;2023-10-31T15:27:27;3.53;;;3.23;;
3712;SDS011;1872;51.406;6.856;2023-10-31T15:29:53;3.50;;;3.20;;